createdAt,value
2019-02-23T00:01:46.354Z,104317.48
2019-02-23T00:04:14.542Z,104315.33
2019-02-23T00:06:41.587Z,104318.03
2019-02-23T00:09:08.867Z,104320.47
2019-02-23T00:11:36.215Z,104313.29
2019-02-23T00:14:03.515Z,104310.19
2019-02-23T00:16:30.620Z,104309.77
2019-02-23T00:18:59.005Z,104310.80
2019-02-23T00:21:26.108Z,104313.98
2019-02-23T00:23:54.450Z,104327.02
2019-02-23T00:26:22.257Z,104330.52
2019-02-23T00:28:49.327Z,104318.78
2019-02-23T00:31:16.361Z,104324.63
2019-02-23T00:33:43.431Z,104316.62
2019-02-23T00:36:10.471Z,104306.51
2019-02-23T00:38:37.513Z,104303.48
2019-02-23T00:41:04.665Z,104306.55
2019-02-23T00:43:31.898Z,104310.48
2019-02-23T00:45:59.335Z,104315.76
2019-02-23T00:48:28.089Z,104311.83
2019-02-23T00:50:55.546Z,104306.88
2019-02-23T00:53:23.310Z,104307.03
2019-02-23T00:55:50.699Z,104304.40
2019-02-23T00:58:18.427Z,104300.72
2019-02-23T01:00:45.520Z,104301.69
2019-02-23T01:03:12.665Z,104325.09
2019-02-23T01:05:41.824Z,104336.38
2019-02-23T01:08:08.916Z,104334.53
2019-02-23T01:10:38.011Z,104331.30
2019-02-23T01:13:05.587Z,104340.06
2019-02-23T01:15:33.757Z,104348.37
2019-02-23T01:18:01.969Z,104347.36
2019-02-23T01:20:29.337Z,104359.34
2019-02-23T01:22:56.988Z,104349.61
2019-02-23T01:25:25.517Z,104354.94
2019-02-23T01:27:52.615Z,104346.88
2019-02-23T01:30:20.621Z,104340.17
2019-02-23T01:32:50.101Z,104339.62
2019-02-23T01:35:18.583Z,104336.48
2019-02-23T01:37:46.245Z,104338.04
2019-02-23T01:40:15.444Z,104336.96
2019-02-23T01:42:44.043Z,104334.06
2019-02-23T01:45:11.482Z,104341.44
2019-02-23T01:47:40.984Z,104343.11
2019-02-23T01:50:08.506Z,104348.72
2019-02-23T01:52:35.963Z,104347.30
2019-02-23T01:55:03.638Z,104360.43
2019-02-23T01:57:32.537Z,104352.60
2019-02-23T01:59:59.609Z,104358.14
2019-02-23T02:02:27.261Z,104349.94
2019-02-23T02:04:55.340Z,104342.23
2019-02-23T02:07:22.730Z,104341.93
2019-02-23T02:09:50.887Z,104345.75
2019-02-23T02:12:19.061Z,104348.14
2019-02-23T02:14:47.851Z,104341.17
2019-02-23T02:17:14.903Z,104331.82
2019-02-23T02:19:42.969Z,104330.86
2019-02-23T02:22:11.123Z,104325.38
2019-02-23T02:24:38.204Z,104322.56
2019-02-23T02:27:06.364Z,104306.20
2019-02-23T02:29:33.454Z,104299.96
2019-02-23T02:32:00.530Z,104315.67
2019-02-23T02:34:28.713Z,104316.53
2019-02-23T02:36:55.779Z,104316.53
2019-02-23T02:39:22.843Z,104308.32
2019-02-23T02:41:49.898Z,104306.63
2019-02-23T02:44:17.079Z,104308.84
2019-02-23T02:46:44.194Z,104316.09
2019-02-23T02:49:11.682Z,104324.22
2019-02-23T02:51:38.762Z,104311.07
2019-02-23T02:54:06.203Z,104305.41
2019-02-23T02:56:33.874Z,104310.54
2019-02-23T02:59:03.384Z,104318.52
2019-02-23T03:01:30.998Z,104320.34
2019-02-23T03:03:58.508Z,104330.34
2019-02-23T03:06:25.842Z,104330.97
2019-02-23T03:08:53.614Z,104332.11
2019-02-23T03:11:20.974Z,104324.08
2019-02-23T03:13:49.859Z,104328.60
2019-02-23T03:16:17.622Z,104321.55
2019-02-23T03:18:48.698Z,104327.70
2019-02-23T03:21:15.942Z,104337.31
2019-02-23T03:23:43.018Z,104334.47
2019-02-23T03:26:10.432Z,104333.89
2019-02-23T03:28:37.831Z,104336.96
2019-02-23T03:31:06.733Z,104334.53
2019-02-23T03:33:34.380Z,104326.77
2019-02-23T03:36:01.426Z,104318.92
2019-02-23T03:38:28.511Z,104322.09
2019-02-23T03:40:55.670Z,104315.75
2019-02-23T03:43:22.735Z,104320.41
2019-02-23T03:45:51.001Z,104324.59
2019-02-23T03:48:18.060Z,104322.78
2019-02-23T03:50:49.128Z,104311.95
2019-02-23T03:53:14.101Z,104313.89
2019-02-23T03:55:42.945Z,104314.02
2019-02-23T03:58:10.438Z,104317.03
2019-02-23T04:00:39.296Z,104320.23
2019-02-23T04:03:06.353Z,104329.61
2019-02-23T04:05:33.400Z,104337.97
2019-02-23T04:08:01.516Z,104337.97
2019-02-23T04:10:30.172Z,104341.44
2019-02-23T04:13:02.119Z,104335.99
2019-02-23T04:15:30.220Z,104329.75
2019-02-23T04:17:57.265Z,104338.59
2019-02-23T04:20:25.427Z,104333.72
2019-02-23T04:22:52.499Z,104332.48
2019-02-23T04:25:19.537Z,104339.64
2019-02-23T04:27:46.600Z,104333.78
2019-02-23T04:30:15.161Z,104338.42
2019-02-23T04:32:43.439Z,104332.80
2019-02-23T04:35:10.546Z,104336.80
2019-02-23T04:37:37.624Z,104337.13
2019-02-23T04:40:05.506Z,104334.59
2019-02-23T04:42:33.304Z,104330.00
2019-02-23T04:45:00.755Z,104325.78
2019-02-23T04:47:27.761Z,104324.63
2019-02-23T04:49:55.334Z,104323.20
2019-02-23T04:52:22.742Z,104320.23
2019-02-23T04:54:49.829Z,104310.27
2019-02-23T04:57:17.376Z,104299.34
2019-02-23T04:59:46.071Z,104299.38
2019-02-23T05:02:13.623Z,104297.71
2019-02-23T05:04:40.665Z,104307.33
2019-02-23T05:07:08.125Z,104300.86
2019-02-23T05:09:35.215Z,104302.97
2019-02-23T05:12:02.253Z,104300.72
2019-02-23T05:14:31.582Z,104293.61
2019-02-23T05:16:58.641Z,104293.91
2019-02-23T05:19:26.208Z,104288.66
2019-02-23T05:21:54.353Z,104301.15
2019-02-23T05:24:21.439Z,104301.09
2019-02-23T05:26:48.509Z,104297.64
2019-02-23T05:29:15.628Z,104284.69
2019-02-23T05:31:43.781Z,104289.21
2019-02-23T05:34:10.860Z,104299.58
2019-02-23T05:36:37.904Z,104302.09
2019-02-23T05:39:05.933Z,104301.02
2019-02-23T05:41:33.575Z,104311.05
2019-02-23T05:44:00.657Z,104311.36
2019-02-23T05:46:27.762Z,104314.63
2019-02-23T05:48:55.903Z,104312.55
2019-02-23T05:51:23.075Z,104318.39
2019-02-23T05:53:50.365Z,104319.48
2019-02-23T05:56:17.410Z,104315.23
2019-02-23T05:58:44.460Z,104300.55
2019-02-23T06:01:11.523Z,104303.02
2019-02-23T06:03:38.921Z,104291.86
2019-02-23T06:06:06.582Z,104301.96
2019-02-23T06:08:35.269Z,104293.34
2019-02-23T06:11:02.315Z,104287.52
2019-02-23T06:13:29.771Z,104287.10
2019-02-23T06:15:57.127Z,104291.22
2019-02-23T06:18:24.175Z,104302.67
2019-02-23T06:20:52.857Z,104304.77
2019-02-23T06:23:20.253Z,104298.61
2019-02-23T06:25:48.286Z,104296.22
2019-02-23T06:28:15.331Z,104286.53
2019-02-23T06:30:42.691Z,104288.16
2019-02-23T06:33:09.732Z,104292.81
2019-02-23T06:35:36.793Z,104290.23
2019-02-23T06:38:03.863Z,104285.83
2019-02-23T06:40:32.015Z,104286.08
2019-02-23T06:43:01.299Z,104273.59
2019-02-23T06:45:29.369Z,104273.17
2019-02-23T06:47:56.440Z,104260.11
2019-02-23T06:50:23.484Z,104268.60
2019-02-23T06:52:50.527Z,104267.33
2019-02-23T06:55:17.718Z,104270.91
2019-02-23T06:57:44.766Z,104265.93
2019-02-23T07:00:13.084Z,104282.07
2019-02-23T07:02:40.169Z,104277.67
2019-02-23T07:05:07.317Z,104277.43
2019-02-23T07:07:34.363Z,104283.69
2019-02-23T07:10:01.449Z,104292.08
2019-02-23T07:12:28.507Z,104304.69
2019-02-23T07:14:55.586Z,104314.67
2019-02-23T07:17:23.235Z,104323.45
2019-02-23T07:19:50.590Z,104316.31
2019-02-23T07:22:18.046Z,104309.80
2019-02-23T07:24:45.398Z,104301.63
2019-02-23T07:27:13.161Z,104302.89
2019-02-23T07:29:40.526Z,104292.36
2019-02-23T07:32:07.596Z,104289.91
2019-02-23T07:34:35.530Z,104290.42
2019-02-23T07:37:02.891Z,104277.44
2019-02-23T07:39:29.969Z,104276.23
2019-02-23T07:41:57.695Z,104271.06
2019-02-23T07:44:25.871Z,104257.05
2019-02-23T07:46:53.227Z,104254.25
2019-02-23T07:49:20.272Z,104264.53
2019-02-23T07:51:47.632Z,104261.80
2019-02-23T07:54:14.668Z,104272.78
2019-02-23T07:56:42.034Z,104278.67
2019-02-23T07:59:09.434Z,104270.44
2019-02-23T08:01:36.843Z,104261.37
2019-02-23T08:04:04.217Z,104264.35
2019-02-23T08:06:31.616Z,104261.01
2019-02-23T08:08:59.762Z,104246.80
2019-02-23T08:11:26.879Z,104246.27
2019-02-23T08:13:53.911Z,104236.40
2019-02-23T08:16:21.088Z,104237.70
2019-02-23T08:18:48.106Z,104245.52
2019-02-23T08:21:15.169Z,104249.75
2019-02-23T08:23:42.935Z,104249.04
2019-02-23T08:26:10.026Z,104262.47
2019-02-23T08:28:38.046Z,104269.88
2019-02-23T08:31:05.711Z,104270.72
2019-02-23T08:33:34.112Z,104271.59
2019-02-23T08:36:03.489Z,104271.08
2019-02-23T08:38:31.172Z,104261.53
2019-02-23T08:41:00.348Z,104253.87
2019-02-23T08:43:29.034Z,104259.92
2019-02-23T08:45:56.405Z,104249.41
2019-02-23T08:48:24.890Z,104257.77
2019-02-23T08:50:52.229Z,104252.09
2019-02-23T08:53:21.219Z,104238.12
2019-02-23T08:55:48.294Z,104237.39
2019-02-23T08:58:17.151Z,104242.97
2019-02-23T09:00:44.227Z,104245.58
2019-02-23T09:03:11.395Z,104248.16
2019-02-23T09:05:38.489Z,104244.00
2019-02-23T09:08:05.888Z,104236.73
2019-02-23T09:10:33.623Z,104229.97
2019-02-23T09:13:01.691Z,104231.67
2019-02-23T09:15:29.048Z,104230.80
2019-02-23T09:17:56.508Z,104231.64
2019-02-23T09:20:29.103Z,104225.63
2019-02-23T09:23:00.083Z,104221.44
2019-02-23T09:25:22.205Z,104208.94
2019-02-23T09:27:49.251Z,104200.66
2019-02-23T09:30:16.311Z,104201.53
2019-02-23T09:32:44.578Z,104203.37
2019-02-23T09:35:12.730Z,104194.37
2019-02-23T09:37:39.833Z,104190.81
2019-02-23T09:40:08.196Z,104183.56
2019-02-23T09:42:37.438Z,104180.02
2019-02-23T09:45:05.783Z,104175.97
2019-02-23T09:47:33.563Z,104179.84
2019-02-23T09:50:01.227Z,104178.11
2019-02-23T09:52:30.627Z,104181.48
2019-02-23T09:54:58.023Z,104192.96
2019-02-23T09:57:25.106Z,104200.58
2019-02-23T09:59:53.968Z,104212.81
2019-02-23T10:02:21.424Z,104194.72
2019-02-23T10:04:48.866Z,104192.89
2019-02-23T10:07:17.558Z,104206.64
2019-02-23T10:09:44.727Z,104208.25
2019-02-23T10:12:12.802Z,104212.64
2019-02-23T10:14:40.298Z,104203.28
2019-02-23T10:17:09.348Z,104202.87
2019-02-23T10:19:37.006Z,104206.00
2019-02-23T10:22:04.842Z,104198.63
2019-02-23T10:24:32.000Z,104201.08
2019-02-23T10:26:59.073Z,104194.16
2019-02-23T10:29:26.495Z,104196.09
2019-02-23T10:31:54.550Z,104196.82
2019-02-23T10:34:21.597Z,104198.20
2019-02-23T10:36:49.012Z,104211.66
2019-02-23T10:39:16.427Z,104226.14
2019-02-23T10:41:43.964Z,104226.66
2019-02-23T10:44:11.021Z,104225.59
2019-02-23T10:46:38.480Z,104235.88
2019-02-23T10:49:07.675Z,104230.00
2019-02-23T10:51:34.951Z,104238.95
2019-02-23T10:54:02.015Z,104234.40
2019-02-23T10:56:29.331Z,104238.73
2019-02-23T10:58:56.436Z,104218.28
2019-02-23T11:01:23.949Z,104224.05
2019-02-23T11:03:52.821Z,104217.23
2019-02-23T11:06:19.866Z,104212.34
2019-02-23T11:08:47.727Z,104195.81
2019-02-23T11:11:16.138Z,104189.72
2019-02-23T11:13:45.305Z,104184.98
2019-02-23T11:16:13.089Z,104179.44
2019-02-23T11:18:40.524Z,104170.65
2019-02-23T11:21:07.715Z,104167.15
2019-02-23T11:23:43.769Z,104159.07
2019-02-23T11:26:04.951Z,104163.94
2019-02-23T11:28:32.142Z,104157.61
2019-02-23T11:30:59.448Z,104150.79
2019-02-23T11:33:26.722Z,104133.83
2019-02-23T11:35:53.797Z,104131.30
2019-02-23T11:38:20.863Z,104132.02
2019-02-23T11:40:49.345Z,104125.61
2019-02-23T11:43:18.605Z,104133.12
2019-02-23T11:45:45.709Z,104123.47
2019-02-23T11:48:12.923Z,104122.92
2019-02-23T11:50:42.095Z,104127.22
2019-02-23T11:53:09.155Z,104124.31
2019-02-23T11:55:37.361Z,104131.84
2019-02-23T11:58:04.637Z,104134.94
2019-02-23T12:00:31.712Z,104135.50
2019-02-23T12:02:58.801Z,104127.55
2019-02-23T12:05:27.657Z,104112.06
2019-02-23T12:07:54.713Z,104121.75
2019-02-23T12:10:22.911Z,104120.98
2019-02-23T12:12:49.979Z,104110.84
2019-02-23T12:15:18.214Z,104116.16
2019-02-23T12:17:46.373Z,104108.15
2019-02-23T12:20:15.183Z,104108.56
2019-02-23T12:22:42.248Z,104101.22
2019-02-23T12:25:15.067Z,104104.69
2019-02-23T12:27:40.798Z,104113.41
2019-02-23T12:30:09.702Z,104116.00
2019-02-23T12:32:37.748Z,104105.70
2019-02-23T12:35:05.928Z,104106.16
2019-02-23T12:37:33.100Z,104109.19
2019-02-23T12:40:00.303Z,104124.53
2019-02-23T12:42:28.458Z,104125.02
2019-02-23T12:44:56.710Z,104120.50
2019-02-23T12:47:24.761Z,104108.77
2019-02-23T12:49:53.377Z,104099.16
2019-02-23T12:52:25.183Z,104098.98
2019-02-23T12:54:52.536Z,104095.59
2019-02-23T12:57:19.969Z,104091.19
2019-02-23T12:59:48.778Z,104087.99
2019-02-23T13:02:16.148Z,104087.99
2019-02-23T13:04:43.642Z,104088.59
2019-02-23T13:07:12.087Z,104088.59
2019-02-23T13:09:44.545Z,104083.28
2019-02-23T13:13:00.237Z,104071.33
2019-02-23T13:15:31.979Z,104063.44
2019-02-23T13:18:29.142Z,104062.95
2019-02-23T13:21:30.261Z,104062.95
2019-02-23T13:24:30.802Z,104043.94
2019-02-23T13:27:38.213Z,104043.94
2019-02-23T13:30:47.135Z,104043.88
2019-02-23T13:33:52.177Z,104043.88
2019-02-23T13:37:02.021Z,104043.98
2019-02-23T13:40:00.755Z,104046.75
2019-02-23T13:42:58.289Z,104046.75
2019-02-23T13:45:40.389Z,104041.80
2019-02-23T13:48:50.672Z,104054.39
2019-02-23T13:51:56.769Z,104050.55
2019-02-23T13:55:27.020Z,104038.44
2019-02-23T13:58:05.251Z,104039.42
2019-02-23T14:01:22.265Z,104040.19
2019-02-23T14:04:30.253Z,104037.09
2019-02-23T14:07:42.113Z,104036.89
2019-02-23T14:10:39.209Z,104020.64
2019-02-23T14:13:51.469Z,104043.25
2019-02-23T14:16:54.087Z,104038.48
2019-02-23T14:19:56.713Z,104033.44
2019-02-23T14:23:09.935Z,104035.51
2019-02-23T14:26:10.678Z,104035.51
2019-02-23T14:29:09.523Z,104043.02
2019-02-23T14:31:59.559Z,104042.39
2019-02-23T14:35:26.973Z,104039.20
2019-02-23T14:38:29.775Z,104048.69
2019-02-23T14:41:44.850Z,104040.56
2019-02-23T14:44:57.288Z,104042.08
2019-02-23T14:47:51.502Z,104030.69
2019-02-23T14:51:09.427Z,104034.59
2019-02-23T14:54:04.009Z,104030.72
2019-02-23T14:57:18.226Z,104024.39
2019-02-23T15:00:19.903Z,104028.59
2019-02-23T15:03:19.437Z,104033.91
2019-02-23T15:06:14.392Z,104031.55
2019-02-23T15:08:59.208Z,104035.34
2019-02-23T15:11:57.843Z,104038.31
2019-02-23T15:15:11.722Z,104038.97
2019-02-23T15:18:36.100Z,104039.17
2019-02-23T15:21:17.894Z,104039.42
2019-02-23T15:24:42.288Z,104029.15
2019-02-23T15:27:27.928Z,104016.44
2019-02-23T15:30:46.362Z,104014.03
2019-02-23T15:34:12.267Z,104015.09
2019-02-23T15:37:12.661Z,104014.34
2019-02-23T15:40:09.142Z,104014.51
2019-02-23T15:43:30.204Z,104014.51
2019-02-23T15:46:51.629Z,104009.52
2019-02-23T15:49:27.696Z,104009.44
2019-02-23T15:51:55.424Z,104007.30
2019-02-23T15:54:23.289Z,103999.05
2019-02-23T15:56:53.404Z,103999.05
2019-02-23T15:59:22.257Z,104003.30
2019-02-23T16:01:49.443Z,103999.75
2019-02-23T16:04:16.518Z,103982.16
2019-02-23T16:06:43.578Z,103982.16
2019-02-23T16:09:12.049Z,103994.09
2019-02-23T16:11:39.351Z,103995.70
2019-02-23T16:14:07.513Z,103995.70
2019-02-23T16:16:36.023Z,103985.16
2019-02-23T16:19:03.252Z,103996.64
2019-02-23T16:21:30.324Z,103996.64
2019-02-23T16:23:58.038Z,104002.59
2019-02-23T16:26:25.962Z,103987.95
2019-02-23T16:28:55.920Z,103987.95
2019-02-23T16:31:23.842Z,103994.13
2019-02-23T16:33:51.049Z,103989.48
2019-02-23T16:36:19.190Z,103991.19
2019-02-23T16:38:46.338Z,103998.10
2019-02-23T16:41:15.746Z,103998.10
2019-02-23T16:43:42.934Z,103986.22
2019-02-23T16:46:13.145Z,103993.98
2019-02-23T16:48:41.616Z,103989.14
2019-02-23T16:51:09.727Z,103990.28
2019-02-23T16:53:38.790Z,103991.31
2019-02-23T16:56:06.204Z,103990.67
2019-02-23T16:58:33.879Z,103978.11
2019-02-23T17:01:04.321Z,103982.63
2019-02-23T17:03:32.396Z,103995.02
2019-02-23T17:05:59.505Z,103993.39
2019-02-23T17:08:27.159Z,103987.66
2019-02-23T17:10:55.448Z,103991.95
2019-02-23T17:13:22.846Z,103992.18
2019-02-23T17:15:51.738Z,103998.23
2019-02-23T17:18:19.531Z,103988.95
2019-02-23T17:20:47.003Z,103997.11
2019-02-23T17:23:14.676Z,104002.45
2019-02-23T17:25:44.943Z,104006.80
2019-02-23T17:28:12.400Z,104002.77
2019-02-23T17:30:40.165Z,104004.14
2019-02-23T17:33:07.697Z,104003.48
2019-02-23T17:35:36.838Z,104001.27
2019-02-23T17:38:15.647Z,103996.22
2019-02-23T17:40:36.041Z,103999.11
2019-02-23T17:43:05.357Z,104005.20
2019-02-23T17:49:40.532Z,103996.99
2019-02-23T17:52:07.542Z,103998.56
2019-02-23T17:54:36.002Z,103999.60
2019-02-23T17:57:04.409Z,103996.28
2019-02-23T17:59:31.409Z,103994.28
2019-02-23T18:01:58.420Z,103997.02
2019-02-23T18:04:25.845Z,103996.22
2019-02-23T18:06:53.211Z,103995.96
2019-02-23T18:09:20.246Z,104000.28
2019-02-23T18:11:47.245Z,104004.68
2019-02-23T18:14:14.253Z,104001.70
2019-02-23T18:16:42.411Z,104002.84
2019-02-23T18:19:09.412Z,103999.56
2019-02-23T18:21:36.419Z,103998.91
2019-02-23T18:24:03.469Z,104002.87
2019-02-23T18:26:30.829Z,104001.84
2019-02-23T18:28:57.863Z,104004.78
2019-02-23T18:31:24.898Z,103996.81
2019-02-23T18:33:51.909Z,103997.34
2019-02-23T18:36:18.971Z,103995.08
2019-02-23T18:38:48.003Z,103990.05
2019-02-23T18:41:15.295Z,103992.92
2019-02-23T18:43:42.452Z,103992.09
2019-02-23T18:46:09.567Z,103993.56
2019-02-23T18:48:37.245Z,103993.70
2019-02-23T18:51:06.544Z,103999.37
2019-02-23T18:53:34.135Z,103990.48
2019-02-23T18:56:01.604Z,103995.59
2019-02-23T18:58:29.891Z,103997.97
2019-02-23T19:00:57.289Z,103999.11
2019-02-23T19:03:26.687Z,103993.77
2019-02-23T19:05:56.060Z,103992.08
2019-02-23T19:08:24.029Z,103999.30
2019-02-23T19:10:52.233Z,103994.71
2019-02-23T19:13:19.573Z,103983.54
2019-02-23T19:15:49.473Z,103982.50
2019-02-23T19:18:18.938Z,103979.25
2019-02-23T19:20:46.574Z,103979.35
2019-02-23T19:23:13.754Z,103979.35
2019-02-23T19:25:42.709Z,103976.63
2019-02-23T19:28:10.036Z,103977.98
2019-02-23T19:30:37.693Z,103979.41
2019-02-23T19:33:05.559Z,103975.48
2019-02-23T19:35:33.345Z,103979.09
2019-02-23T19:38:02.630Z,103972.48
2019-02-23T19:40:30.303Z,103977.16
2019-02-23T19:42:59.018Z,103972.83
2019-02-23T19:45:26.469Z,103964.95
2019-02-23T19:47:54.775Z,103962.12
2019-02-23T19:50:34.536Z,103964.86
2019-02-23T19:53:01.651Z,103961.23
2019-02-23T19:55:29.404Z,103955.89
2019-02-23T19:57:57.022Z,103951.09
2019-02-23T20:00:25.052Z,103952.92
2019-02-23T20:02:52.991Z,103947.92
2019-02-23T20:05:21.119Z,103957.63
2019-02-23T20:07:49.337Z,103956.39
2019-02-23T20:10:16.677Z,103953.95
2019-02-23T20:12:44.115Z,103957.31
2019-02-23T20:15:12.290Z,103956.89
2019-02-23T20:17:41.373Z,103960.53
2019-02-23T20:20:08.561Z,103955.31
2019-02-23T20:22:36.419Z,103952.03
2019-02-23T20:25:05.046Z,103950.66
2019-02-23T20:27:33.522Z,103949.16
2019-02-23T20:30:01.990Z,103953.73
2019-02-23T20:32:31.666Z,103952.31
2019-02-23T20:35:00.531Z,103953.48
2019-02-23T20:37:28.741Z,103951.70
2019-02-23T20:39:55.811Z,103953.84
2019-02-23T20:42:23.450Z,103953.48
2019-02-23T20:44:54.127Z,103953.48
2019-02-23T20:47:21.697Z,103957.28
2019-02-23T20:49:50.394Z,103955.31
2019-02-23T20:52:17.866Z,103953.73
2019-02-23T20:54:45.631Z,103956.33
2019-02-23T20:57:14.015Z,103957.72
2019-02-23T20:59:42.319Z,103946.22
2019-02-23T21:02:10.057Z,103950.92
2019-02-23T21:04:38.930Z,103945.16
2019-02-23T21:07:06.035Z,103942.52
2019-02-23T21:09:35.009Z,103936.95
2019-02-23T21:12:02.478Z,103943.24
2019-02-23T21:14:29.702Z,103937.77
2019-02-23T21:16:57.889Z,103928.02
2019-02-23T21:19:25.051Z,103932.73
2019-02-23T21:21:52.140Z,103924.37
2019-02-23T21:24:19.207Z,103924.73
2019-02-23T21:26:46.383Z,103932.52
2019-02-23T21:29:14.749Z,103922.62
2019-02-23T21:31:42.035Z,103926.34
2019-02-23T21:34:09.186Z,103917.38
2019-02-23T21:36:36.549Z,103912.59
2019-02-23T21:39:04.456Z,103910.56
2019-02-23T21:41:33.715Z,103912.05
2019-02-23T21:44:01.111Z,103908.92
2019-02-23T21:46:28.771Z,103903.70
2019-02-23T21:48:56.243Z,103911.13
2019-02-23T21:51:23.298Z,103907.67
2019-02-23T21:53:50.470Z,103903.50
2019-02-23T21:56:18.150Z,103904.30
2019-02-23T21:58:46.054Z,103912.25
2019-02-23T22:01:14.579Z,103912.94
2019-02-23T22:03:42.976Z,103907.63
2019-02-23T22:06:10.019Z,103908.41
2019-02-23T22:08:37.494Z,103909.38
2019-02-23T22:11:04.604Z,103904.89
2019-02-23T22:13:31.762Z,103905.31
2019-02-23T22:15:58.830Z,103896.30
2019-02-23T22:18:27.082Z,103905.08
2019-02-23T22:20:54.435Z,103904.24
2019-02-23T22:23:23.785Z,103898.76
2019-02-23T22:25:51.216Z,103903.42
2019-02-23T22:28:20.482Z,103907.01
2019-02-23T22:30:47.551Z,103904.20
2019-02-23T22:33:14.900Z,103910.14
2019-02-23T22:35:42.343Z,103912.33
2019-02-23T22:38:11.123Z,103913.89
2019-02-23T22:40:38.667Z,103921.33
2019-02-23T22:43:06.134Z,103918.06
2019-02-23T22:45:33.594Z,103923.80
2019-02-23T22:48:00.781Z,103917.97
2019-02-23T22:50:28.174Z,103926.59
2019-02-23T22:52:55.766Z,103921.71
2019-02-23T22:55:23.813Z,103930.97
2019-02-23T22:57:51.281Z,103931.22
2019-02-23T23:00:23.189Z,103931.45
2019-02-23T23:02:54.198Z,103926.98
2019-02-23T23:05:22.572Z,103929.66
2019-02-23T23:07:50.342Z,103930.30
2019-02-23T23:10:17.916Z,103933.68
2019-02-23T23:12:44.979Z,103933.52
2019-02-23T23:15:12.380Z,103932.63
2019-02-23T23:17:40.242Z,103929.28
2019-02-23T23:20:08.112Z,103926.19
2019-02-23T23:22:35.172Z,103932.86
2019-02-23T23:25:02.907Z,103927.36
2019-02-23T23:27:30.819Z,103921.00
2019-02-23T23:29:59.377Z,103917.22
2019-02-23T23:32:27.279Z,103916.89
2019-02-23T23:34:54.353Z,103913.51
2019-02-23T23:37:22.054Z,103909.34
2019-02-23T23:39:49.814Z,103905.27
2019-02-23T23:42:17.647Z,103905.63
2019-02-23T23:44:45.233Z,103902.23
2019-02-23T23:47:13.026Z,103901.55
2019-02-23T23:49:40.462Z,103909.66
2019-02-23T23:52:08.116Z,103901.93
2019-02-23T23:54:35.878Z,103904.13
2019-02-23T23:57:02.925Z,103897.74
2019-02-23T23:59:30.037Z,103896.47
